createdAt,value
2023-05-14T00:02:11.974Z,59.66
2023-05-14T00:04:41.050Z,59.77
2023-05-14T00:07:09.324Z,60.98
2023-05-14T00:09:37.710Z,69.17
2023-05-14T00:12:06.611Z,68.59
2023-05-14T00:14:34.512Z,61.80
2023-05-14T00:17:03.456Z,54.15
2023-05-14T00:19:31.464Z,52.35
2023-05-14T00:21:59.247Z,54.06
2023-05-14T00:24:27.174Z,55.51
2023-05-14T00:26:55.111Z,56.29
2023-05-14T00:29:23.292Z,57.43
2023-05-14T00:31:52.053Z,58.89
2023-05-14T00:34:19.947Z,60.01
2023-05-14T00:36:47.868Z,61.25
2023-05-14T00:39:15.711Z,67.95
2023-05-14T00:41:44.564Z,67.94
2023-05-14T00:44:12.384Z,60.58
2023-05-14T00:46:40.694Z,53.98
2023-05-14T00:49:08.717Z,52.52
2023-05-14T00:51:37.307Z,54.56
2023-05-14T00:54:06.568Z,56.14
2023-05-14T00:56:35.573Z,56.35
2023-05-14T00:59:03.803Z,58.08
2023-05-14T01:01:32.112Z,58.81
2023-05-14T01:04:01.123Z,60.04
2023-05-14T01:06:42.926Z,61.09
2023-05-14T01:09:28.295Z,61.06
2023-05-14T01:12:18.506Z,71.14
2023-05-14T01:14:53.696Z,69.55
2023-05-14T01:17:24.817Z,63.26
2023-05-14T01:19:54.292Z,55.31
2023-05-14T01:22:22.118Z,53.08
2023-05-14T01:24:50.916Z,54.51
2023-05-14T01:27:44.565Z,56.19
2023-05-14T01:30:26.146Z,57.30
2023-05-14T01:33:01.098Z,58.38
2023-05-14T01:35:31.170Z,59.38
2023-05-14T01:38:06.823Z,66.89
2023-05-14T01:40:37.029Z,67.86
2023-05-14T01:43:06.650Z,60.67
2023-05-14T01:45:36.742Z,53.75
2023-05-14T01:48:06.702Z,53.01
2023-05-14T01:50:34.644Z,54.31
2023-05-14T01:53:02.665Z,56.49
2023-05-14T01:55:31.649Z,58.92
2023-05-14T01:57:59.860Z,60.12
2023-05-14T02:00:27.807Z,64.25
2023-05-14T02:02:56.025Z,67.41
2023-05-14T02:05:23.914Z,62.71
2023-05-14T02:07:51.860Z,61.01
2023-05-14T02:10:19.654Z,54.89
2023-05-14T02:12:47.531Z,53.31
2023-05-14T02:15:15.550Z,55.35
2023-05-14T02:17:43.689Z,57.16
2023-05-14T02:20:12.863Z,59.09
2023-05-14T02:22:42.373Z,62.43
2023-05-14T02:25:10.684Z,69.74
2023-05-14T02:27:38.554Z,66.45
2023-05-14T02:30:08.034Z,60.77
2023-05-14T02:32:35.988Z,54.58
2023-05-14T02:35:06.677Z,54.03
2023-05-14T02:37:35.935Z,56.49
2023-05-14T02:40:04.529Z,58.29
2023-05-14T02:42:32.497Z,58.35
2023-05-14T02:45:00.543Z,59.53
2023-05-14T02:47:28.453Z,60.87
2023-05-14T02:49:56.247Z,68.25
2023-05-14T02:52:24.132Z,69.04
2023-05-14T02:54:52.067Z,63.03
2023-05-14T02:57:21.160Z,56.57
2023-05-14T02:59:49.153Z,53.64
2023-05-14T03:02:17.865Z,55.45
2023-05-14T03:04:47.004Z,58.91
2023-05-14T03:07:14.939Z,60.12
2023-05-14T03:09:43.590Z,61.26
2023-05-14T03:12:13.546Z,68.61
2023-05-14T03:14:41.418Z,69.02
2023-05-14T03:17:09.605Z,62.96
2023-05-14T03:19:37.878Z,60.56
2023-05-14T03:22:05.994Z,56.91
2023-05-14T03:24:34.945Z,55.65
2023-05-14T03:27:03.027Z,56.65
2023-05-14T03:29:30.865Z,58.43
2023-05-14T03:31:58.841Z,59.21
2023-05-14T03:34:26.691Z,60.90
2023-05-14T03:36:55.330Z,65.88
2023-05-14T03:39:23.693Z,70.61
2023-05-14T03:41:51.531Z,65.55
2023-05-14T03:44:19.748Z,61.26
2023-05-14T03:46:47.607Z,55.74
2023-05-14T03:49:16.395Z,54.24
2023-05-14T03:51:44.411Z,55.87
2023-05-14T03:54:12.350Z,58.66
2023-05-14T03:56:40.938Z,59.90
2023-05-14T03:59:08.824Z,62.88
2023-05-14T04:01:36.606Z,66.40
2023-05-14T04:04:05.016Z,68.27
2023-05-14T04:06:34.045Z,63.87
2023-05-14T04:09:02.486Z,59.84
2023-05-14T04:11:30.531Z,55.06
2023-05-14T04:13:58.401Z,55.42
2023-05-14T04:16:26.533Z,56.89
2023-05-14T04:18:54.869Z,59.17
2023-05-14T04:21:22.746Z,61.13
2023-05-14T04:23:51.655Z,67.90
2023-05-14T04:26:19.746Z,68.92
2023-05-14T04:28:47.715Z,62.04
2023-05-14T04:31:16.207Z,56.14
2023-05-14T04:33:44.266Z,54.21
2023-05-14T04:36:12.573Z,55.36
2023-05-14T04:38:40.344Z,57.42
2023-05-14T04:41:08.709Z,60.82
2023-05-14T04:43:37.076Z,62.12
2023-05-14T04:46:07.159Z,69.42
2023-05-14T04:48:35.047Z,65.31
2023-05-14T04:51:05.026Z,59.51
2023-05-14T04:53:34.757Z,53.71
2023-05-14T04:56:03.168Z,53.64
2023-05-14T04:58:34.631Z,57.06
2023-05-14T05:01:06.002Z,58.71
2023-05-14T05:03:34.107Z,59.30
2023-05-14T05:06:02.586Z,59.94
2023-05-14T05:08:30.917Z,64.36
2023-05-14T05:10:58.785Z,65.24
2023-05-14T05:13:26.637Z,60.59
2023-05-14T05:15:54.444Z,56.02
2023-05-14T05:18:22.485Z,57.74
2023-05-14T05:20:50.315Z,58.54
2023-05-14T05:23:18.358Z,59.15
2023-05-14T05:25:46.252Z,61.60
2023-05-14T05:28:14.183Z,68.02
2023-05-14T05:30:45.306Z,63.25
2023-05-14T05:33:13.461Z,58.03
2023-05-14T05:35:41.903Z,54.82
2023-05-14T05:38:10.296Z,56.72
2023-05-14T05:40:38.602Z,58.73
2023-05-14T05:43:06.477Z,59.91
2023-05-14T05:45:34.342Z,60.90
2023-05-14T05:48:02.429Z,64.74
2023-05-14T05:50:31.710Z,64.44
2023-05-14T05:53:01.281Z,59.90
2023-05-14T05:55:29.970Z,55.72
2023-05-14T05:57:58.131Z,56.68
2023-05-14T06:00:26.226Z,59.55
2023-05-14T06:02:56.549Z,61.59
2023-05-14T06:05:25.190Z,63.57
2023-05-14T06:07:53.813Z,61.33
2023-05-14T06:10:22.287Z,56.61
2023-05-14T06:12:50.431Z,56.01
2023-05-14T06:15:19.007Z,58.82
2023-05-14T06:17:46.906Z,60.89
2023-05-14T06:20:15.435Z,63.06
2023-05-14T06:22:44.972Z,63.47
2023-05-14T06:25:12.868Z,58.30
2023-05-14T06:27:42.300Z,57.05
2023-05-14T06:30:11.479Z,58.18
2023-05-14T06:32:39.439Z,61.46
2023-05-14T06:35:08.163Z,63.93
2023-05-14T06:37:38.427Z,61.88
2023-05-14T06:40:07.698Z,60.44
2023-05-14T06:42:35.841Z,55.91
2023-05-14T06:45:05.624Z,55.32
2023-05-14T06:47:34.802Z,57.77
2023-05-14T06:50:03.730Z,59.19
2023-05-14T06:52:31.688Z,60.86
2023-05-14T06:54:59.642Z,64.10
2023-05-14T06:57:30.095Z,61.68
2023-05-14T06:59:58.455Z,57.00
2023-05-14T07:02:26.302Z,56.60
2023-05-14T07:04:54.106Z,57.45
2023-05-14T07:07:21.869Z,59.50
2023-05-14T07:09:49.669Z,60.80
2023-05-14T07:12:17.468Z,63.02
2023-05-14T07:14:48.741Z,63.16
2023-05-14T07:17:17.091Z,59.26
2023-05-14T07:19:45.180Z,57.12
2023-05-14T07:22:13.240Z,57.25
2023-05-14T07:24:41.178Z,58.98
2023-05-14T07:27:09.597Z,60.67
2023-05-14T07:29:37.709Z,61.93
2023-05-14T07:32:08.737Z,62.88
2023-05-14T07:34:39.934Z,61.77
2023-05-14T07:37:08.045Z,60.69
2023-05-14T07:39:36.328Z,55.08
2023-05-14T07:42:05.516Z,54.27
2023-05-14T07:44:33.309Z,54.86
2023-05-14T07:47:01.226Z,56.60
2023-05-14T07:49:29.410Z,57.31
2023-05-14T07:51:57.319Z,57.88
2023-05-14T07:54:25.362Z,58.41
2023-05-14T07:56:53.409Z,59.77
2023-05-14T07:59:21.930Z,59.36
2023-05-14T08:01:51.210Z,59.30
2023-05-14T08:04:19.249Z,59.52
2023-05-14T08:06:47.385Z,60.83
2023-05-14T08:09:16.097Z,60.86
2023-05-14T08:11:44.106Z,61.02
2023-05-14T08:14:12.309Z,60.03
2023-05-14T08:16:41.364Z,60.61
2023-05-14T08:19:09.772Z,60.81
2023-05-14T08:21:37.584Z,60.76
2023-05-14T08:24:06.896Z,60.02
2023-05-14T08:26:35.049Z,60.35
2023-05-14T08:29:02.961Z,59.14
2023-05-14T08:31:32.000Z,58.98
2023-05-14T08:33:59.884Z,58.33
2023-05-14T08:36:27.856Z,59.43
2023-05-14T08:38:55.818Z,57.95
2023-05-14T08:41:25.547Z,57.89
2023-05-14T08:44:13.633Z,58.05
2023-05-14T08:46:42.334Z,57.45
2023-05-14T08:49:37.015Z,57.21
2023-05-14T08:52:06.104Z,55.81
2023-05-14T08:54:36.201Z,55.09
2023-05-14T08:57:05.545Z,55.05
2023-05-14T08:59:33.800Z,54.05
2023-05-14T09:02:05.225Z,53.25
2023-05-14T09:04:35.026Z,53.40
2023-05-14T09:07:04.169Z,52.12
2023-05-14T09:09:32.525Z,52.07
2023-05-14T09:12:02.362Z,51.38
2023-05-14T09:14:30.136Z,48.97
2023-05-14T09:16:58.185Z,48.67
2023-05-14T09:19:26.532Z,49.31
2023-05-14T09:21:59.126Z,48.61
2023-05-14T09:24:31.782Z,47.41
2023-05-14T09:27:04.436Z,47.46
2023-05-14T09:29:34.901Z,45.98
2023-05-14T09:32:06.518Z,46.21
2023-05-14T09:34:38.155Z,46.26
2023-05-14T09:37:08.952Z,45.39
2023-05-14T09:39:38.977Z,44.27
2023-05-14T09:42:08.393Z,43.40
2023-05-14T09:44:38.212Z,43.70
2023-05-14T09:47:08.427Z,43.31
2023-05-14T09:49:36.337Z,41.39
2023-05-14T09:52:07.153Z,40.82
2023-05-14T09:54:36.215Z,38.44
2023-05-14T09:57:04.101Z,37.46
2023-05-14T09:59:31.898Z,37.93
2023-05-14T10:02:01.017Z,39.05
2023-05-14T10:04:29.127Z,38.11
2023-05-14T10:06:57.606Z,38.24
2023-05-14T10:09:31.448Z,37.46
2023-05-14T10:12:01.464Z,37.34
2023-05-14T10:14:49.842Z,36.83
2023-05-14T10:17:22.174Z,37.00
2023-05-14T10:19:57.554Z,36.17
2023-05-14T10:22:33.657Z,36.34
2023-05-14T10:25:04.174Z,36.37
2023-05-14T10:27:32.612Z,35.75
2023-05-14T10:30:00.460Z,36.11
2023-05-14T10:32:33.160Z,35.98
2023-05-14T10:35:02.046Z,35.23
2023-05-14T10:37:31.125Z,34.83
2023-05-14T10:40:06.773Z,34.76
2023-05-14T10:42:43.425Z,34.36
2023-05-14T10:45:17.701Z,34.69
2023-05-14T10:47:47.531Z,34.23
2023-05-14T10:50:17.848Z,33.30
2023-05-14T10:52:46.349Z,33.44
2023-05-14T10:55:17.035Z,34.01
2023-05-14T10:57:46.722Z,33.81
2023-05-14T11:00:16.239Z,33.66
2023-05-14T11:02:45.743Z,33.44
2023-05-14T11:05:17.832Z,33.15
2023-05-14T11:07:50.094Z,33.56
2023-05-14T11:10:21.097Z,32.87
2023-05-14T11:12:51.621Z,32.47
2023-05-14T11:15:27.002Z,31.74
2023-05-14T11:17:56.612Z,31.40
2023-05-14T11:20:25.321Z,30.93
2023-05-14T11:22:53.613Z,30.78
2023-05-14T11:25:23.340Z,30.97
2023-05-14T11:27:52.370Z,30.36
2023-05-14T11:30:21.971Z,30.10
2023-05-14T11:32:51.436Z,30.00
2023-05-14T11:35:19.794Z,30.13
2023-05-14T11:37:52.753Z,30.50
2023-05-14T11:40:21.317Z,30.47
2023-05-14T11:42:53.425Z,30.45
2023-05-14T11:45:27.364Z,29.90
2023-05-14T11:47:56.061Z,30.19
2023-05-14T11:50:24.349Z,29.56
2023-05-14T11:52:57.521Z,29.90
2023-05-14T11:55:25.762Z,29.66
2023-05-14T11:57:54.414Z,29.37
2023-05-14T12:00:24.869Z,29.14
2023-05-14T12:02:54.753Z,29.15
2023-05-14T12:05:22.730Z,28.92
2023-05-14T12:07:51.032Z,28.64
2023-05-14T12:10:18.955Z,29.30
2023-05-14T12:12:49.121Z,28.67
2023-05-14T12:15:22.179Z,28.15
2023-05-14T12:17:51.977Z,27.82
2023-05-14T12:20:20.218Z,28.01
2023-05-14T12:22:48.097Z,27.96
2023-05-14T12:25:16.188Z,27.71
2023-05-14T12:27:46.442Z,28.17
2023-05-14T12:32:46.899Z,28.56
2023-05-14T12:35:14.794Z,28.30
2023-05-14T12:37:43.137Z,28.56
2023-05-14T12:40:11.684Z,28.03
2023-05-14T12:42:40.075Z,27.34
2023-05-14T12:45:08.864Z,26.44
2023-05-14T12:47:37.505Z,27.05
2023-05-14T12:50:06.646Z,27.05
2023-05-14T12:52:39.329Z,27.88
2023-05-14T12:55:09.783Z,28.35
2023-05-14T12:57:39.491Z,27.98
2023-05-14T13:00:14.173Z,27.72
2023-05-14T13:02:43.698Z,27.80
2023-05-14T13:05:12.927Z,27.79
2023-05-14T13:07:41.206Z,26.90
2023-05-14T13:10:10.178Z,26.88
2023-05-14T13:12:39.029Z,27.20
2023-05-14T13:15:07.778Z,27.49
2023-05-14T13:17:37.358Z,27.99
2023-05-14T13:20:06.387Z,27.49
2023-05-14T13:22:34.276Z,27.04
2023-05-14T13:25:03.886Z,26.85
2023-05-14T13:27:31.789Z,27.08
2023-05-14T13:30:06.171Z,27.02
2023-05-14T13:32:34.790Z,27.43
2023-05-14T13:35:02.665Z,28.11
2023-05-14T13:37:30.637Z,28.32
2023-05-14T13:39:58.608Z,28.33
2023-05-14T13:42:27.209Z,28.42
2023-05-14T13:44:56.497Z,28.72
2023-05-14T13:47:26.675Z,29.26
2023-05-14T13:49:56.876Z,29.59
2023-05-14T13:52:25.374Z,29.84
2023-05-14T13:54:53.573Z,29.08
2023-05-14T13:57:22.113Z,28.90
2023-05-14T13:59:49.991Z,28.36
2023-05-14T14:02:18.205Z,28.29
2023-05-14T14:04:46.100Z,28.18
2023-05-14T14:07:14.002Z,27.91
2023-05-14T14:09:41.825Z,28.61
2023-05-14T14:12:10.186Z,28.79
2023-05-14T14:14:38.065Z,29.21
2023-05-14T14:17:06.032Z,29.43
2023-05-14T14:19:33.927Z,29.69
2023-05-14T14:22:02.066Z,30.26
2023-05-14T14:24:32.155Z,30.45
2023-05-14T14:27:02.776Z,30.63
2023-05-14T14:29:33.093Z,30.41
2023-05-14T14:32:01.204Z,29.71
2023-05-14T14:34:30.709Z,29.33
2023-05-14T14:36:58.570Z,28.85
2023-05-14T14:39:32.460Z,28.23
2023-05-14T14:42:04.905Z,28.71
2023-05-14T14:44:32.977Z,28.35
2023-05-14T14:47:00.769Z,28.02
2023-05-14T14:49:33.337Z,27.46
2023-05-14T14:52:01.977Z,27.81
2023-05-14T14:54:30.241Z,27.14
2023-05-14T14:56:58.085Z,26.49
2023-05-14T14:59:26.010Z,26.82
2023-05-14T15:01:53.819Z,26.96
2023-05-14T15:04:23.141Z,26.99
2023-05-14T15:06:51.006Z,26.64
2023-05-14T15:09:18.899Z,27.19
2023-05-14T15:11:47.227Z,27.56
2023-05-14T15:14:15.143Z,27.22
2023-05-14T15:16:43.097Z,27.07
2023-05-14T15:19:11.291Z,27.02
2023-05-14T15:21:39.680Z,27.06
2023-05-14T15:24:12.655Z,27.54
2023-05-14T15:26:41.242Z,27.23
2023-05-14T15:29:09.100Z,27.71
2023-05-14T15:31:37.061Z,27.80
2023-05-14T15:34:05.350Z,27.88
2023-05-14T15:36:33.190Z,27.99
2023-05-14T15:39:01.206Z,26.89
2023-05-14T15:41:29.612Z,26.65
2023-05-14T15:43:58.663Z,27.12
2023-05-14T15:46:27.680Z,27.49
2023-05-14T15:48:56.229Z,27.53
2023-05-14T15:51:24.033Z,27.59
2023-05-14T15:53:54.230Z,26.87
2023-05-14T15:56:22.976Z,26.93
2023-05-14T15:58:52.713Z,27.21
2023-05-14T16:01:22.384Z,27.12
2023-05-14T16:03:50.453Z,26.80
2023-05-14T16:06:18.630Z,26.69
2023-05-14T16:08:49.653Z,27.04
2023-05-14T16:11:18.849Z,27.23
2023-05-14T16:13:46.946Z,27.54
2023-05-14T16:16:15.341Z,27.58
2023-05-14T16:18:44.025Z,27.59
2023-05-14T16:21:12.684Z,27.71
2023-05-14T16:23:40.880Z,27.25
2023-05-14T16:26:09.400Z,27.21
2023-05-14T16:28:41.722Z,27.03
2023-05-14T16:31:11.846Z,27.77
2023-05-14T16:33:40.087Z,27.85
2023-05-14T16:36:08.999Z,28.43
2023-05-14T16:38:41.448Z,28.31
2023-05-14T16:41:16.350Z,28.44
2023-05-14T16:43:45.745Z,28.72
2023-05-14T16:46:14.386Z,28.59
2023-05-14T16:48:43.488Z,28.59
2023-05-14T16:51:12.360Z,28.52
2023-05-14T16:53:40.405Z,28.82
2023-05-14T16:56:09.352Z,28.86
2023-05-14T16:58:37.313Z,28.79
2023-05-14T17:01:07.379Z,28.90
2023-05-14T17:03:37.717Z,29.17
2023-05-14T17:06:06.032Z,29.74
2023-05-14T17:08:35.657Z,29.84
2023-05-14T17:11:06.103Z,29.94
2023-05-14T17:13:33.648Z,30.18
2023-05-14T17:16:16.049Z,30.64
2023-05-14T17:18:42.815Z,31.04
2023-05-14T17:21:10.889Z,31.16
2023-05-14T17:23:38.699Z,31.78
2023-05-14T17:26:07.020Z,31.99
2023-05-14T17:28:36.746Z,32.16
2023-05-14T17:31:05.159Z,32.12
2023-05-14T17:33:33.081Z,32.30
2023-05-14T17:36:01.597Z,32.74
2023-05-14T17:38:29.605Z,33.13
2023-05-14T17:40:57.848Z,33.35
2023-05-14T17:43:26.006Z,33.42
2023-05-14T17:45:54.929Z,33.65
2023-05-14T17:48:24.172Z,33.80
2023-05-14T17:50:54.881Z,33.85
2023-05-14T17:53:22.704Z,34.18
2023-05-14T17:55:51.801Z,34.35
2023-05-14T17:58:19.756Z,34.11
2023-05-14T18:00:47.607Z,34.39
2023-05-14T18:03:16.214Z,34.61
2023-05-14T18:05:44.535Z,34.95
2023-05-14T18:08:12.428Z,35.20
2023-05-14T18:10:42.280Z,35.29
2023-05-14T18:13:12.468Z,35.40
2023-05-14T18:15:40.425Z,35.60
2023-05-14T18:18:08.954Z,35.99
2023-05-14T18:20:37.009Z,36.15
2023-05-14T18:23:04.940Z,36.40
2023-05-14T18:25:34.514Z,36.41
2023-05-14T18:28:02.441Z,36.25
2023-05-14T18:30:31.600Z,36.66
2023-05-14T18:32:59.984Z,36.94
2023-05-14T18:35:28.396Z,37.02
2023-05-14T18:37:56.464Z,36.77
2023-05-14T18:40:29.399Z,36.81
2023-05-14T18:42:58.202Z,36.98
2023-05-14T18:45:26.293Z,37.39
2023-05-14T18:47:55.565Z,37.58
2023-05-14T18:50:23.748Z,37.97
2023-05-14T18:52:52.499Z,38.22
2023-05-14T18:55:20.447Z,38.35
2023-05-14T18:57:48.435Z,38.46
2023-05-14T19:00:16.556Z,38.62
2023-05-14T19:02:45.019Z,39.01
2023-05-14T19:05:13.988Z,39.18
2023-05-14T19:07:43.063Z,39.35
2023-05-14T19:10:14.221Z,39.66
2023-05-14T19:12:44.071Z,39.79
2023-05-14T19:15:14.724Z,39.93
2023-05-14T19:17:43.999Z,40.11
2023-05-14T19:20:12.510Z,40.72
2023-05-14T19:22:40.468Z,40.99
2023-05-14T19:25:09.253Z,41.43
2023-05-14T19:27:38.413Z,42.01
2023-05-14T19:30:07.153Z,42.56
2023-05-14T19:32:37.864Z,43.03
2023-05-14T19:35:06.305Z,43.44
2023-05-14T19:37:34.551Z,43.98
2023-05-14T19:40:03.563Z,44.09
2023-05-14T19:42:33.948Z,44.61
2023-05-14T19:45:01.941Z,44.89
2023-05-14T19:47:30.134Z,45.21
2023-05-14T19:49:58.379Z,45.60
2023-05-14T19:52:26.242Z,46.03
2023-05-14T19:54:54.136Z,46.48
2023-05-14T19:57:21.943Z,47.08
2023-05-14T19:59:49.745Z,47.38
2023-05-14T20:02:21.900Z,47.91
2023-05-14T20:04:50.065Z,48.32
2023-05-14T20:07:18.939Z,48.65
2023-05-14T20:09:47.619Z,48.75
2023-05-14T20:12:16.826Z,48.61
2023-05-14T20:14:45.267Z,48.41
2023-05-14T20:17:13.478Z,48.73
2023-05-14T20:19:41.706Z,49.04
2023-05-14T20:22:11.368Z,49.56
2023-05-14T20:24:41.354Z,49.55
2023-05-14T20:27:09.755Z,49.68
2023-05-14T20:29:37.671Z,49.75
2023-05-14T20:32:09.963Z,50.15
2023-05-14T20:34:37.942Z,50.31
2023-05-14T20:37:06.876Z,50.40
2023-05-14T20:39:34.894Z,50.55
2023-05-14T20:42:02.707Z,51.66
2023-05-14T20:44:31.186Z,51.97
2023-05-14T20:46:59.650Z,51.63
2023-05-14T20:49:28.451Z,51.57
2023-05-14T20:51:56.316Z,51.82
2023-05-14T20:54:24.242Z,51.82
2023-05-14T20:56:54.294Z,51.99
2023-05-14T20:59:22.145Z,52.25
2023-05-14T21:01:51.087Z,52.66
2023-05-14T21:04:19.080Z,52.66
2023-05-14T21:06:48.562Z,52.83
2023-05-14T21:09:17.928Z,52.61
2023-05-14T21:11:45.994Z,53.04
2023-05-14T21:14:13.951Z,52.92
2023-05-14T21:16:43.540Z,53.31
2023-05-14T21:19:13.323Z,53.13
2023-05-14T21:21:43.206Z,53.07
2023-05-14T21:24:11.226Z,53.34
2023-05-14T21:26:40.399Z,52.98
2023-05-14T21:29:10.103Z,53.40
2023-05-14T21:31:39.345Z,53.85
2023-05-14T21:34:07.332Z,53.86
2023-05-14T21:36:35.273Z,53.76
2023-05-14T21:39:03.190Z,53.75
2023-05-14T21:41:32.534Z,53.66
2023-05-14T21:44:00.540Z,53.89
2023-05-14T21:46:29.127Z,54.12
2023-05-14T21:48:57.498Z,54.00
2023-05-14T21:51:25.543Z,54.16
2023-05-14T21:53:53.838Z,54.24
2023-05-14T21:56:22.654Z,54.30
2023-05-14T21:58:51.567Z,54.15
2023-05-14T22:01:19.840Z,54.46
2023-05-14T22:03:47.770Z,54.59
2023-05-14T22:06:15.631Z,54.47
2023-05-14T22:08:43.799Z,54.80
2023-05-14T22:11:12.469Z,55.03
2023-05-14T22:13:41.161Z,55.39
2023-05-14T22:16:13.710Z,55.47
2023-05-14T22:18:42.749Z,55.39
2023-05-14T22:21:10.603Z,56.19
2023-05-14T22:23:38.501Z,56.62
2023-05-14T22:26:06.276Z,56.68
2023-05-14T22:28:34.137Z,56.88
2023-05-14T22:31:02.219Z,56.80
2023-05-14T22:33:33.297Z,57.13
2023-05-14T22:36:01.276Z,57.33
2023-05-14T22:38:29.426Z,57.42
2023-05-14T22:40:57.300Z,57.89
2023-05-14T22:43:25.790Z,57.96
2023-05-14T22:45:53.631Z,58.07
2023-05-14T22:48:22.702Z,58.32
2023-05-14T22:50:51.900Z,58.27
2023-05-14T22:53:19.739Z,58.49
2023-05-14T22:55:47.669Z,58.45
2023-05-14T22:58:15.461Z,58.50
2023-05-14T23:00:45.281Z,58.80
2023-05-14T23:03:13.147Z,59.15
2023-05-14T23:05:41.100Z,59.39
2023-05-14T23:08:09.228Z,59.06
2023-05-14T23:10:37.209Z,59.09
2023-05-14T23:13:05.120Z,59.12
2023-05-14T23:15:33.483Z,59.14
2023-05-14T23:18:01.611Z,59.25
2023-05-14T23:20:30.796Z,59.41
2023-05-14T23:22:58.703Z,59.96
2023-05-14T23:25:29.145Z,60.67
2023-05-14T23:27:57.260Z,59.69
2023-05-14T23:30:25.188Z,59.78
2023-05-14T23:32:53.408Z,60.12
2023-05-14T23:35:21.588Z,60.45
2023-05-14T23:37:51.218Z,60.47
2023-05-14T23:40:18.993Z,60.90
2023-05-14T23:42:47.088Z,60.86
2023-05-14T23:45:15.296Z,62.51
2023-05-14T23:47:43.887Z,68.07
2023-05-14T23:50:12.112Z,63.21
2023-05-14T23:52:40.413Z,55.46
2023-05-14T23:55:08.832Z,54.28
2023-05-14T23:57:37.104Z,54.85
